La Harpe, Kansas
Current Conditions -  °F | °C
As of 11:52 PM on Tuesday 21 Oct 2014 (Local Time) from KCNU Reporting Station
Clear Clear  
Wind Chill: 59°   Ceiling: Unl
Heat Index: 59°   Visibility: 10mi
Dew Point: 50°   Wind: 8mph
Humidity: 72%   Direction: 120°ESE
Pressure: 30.09"   Gusts: NA
Location:  37.92°N, 95.3°W
Report Text: KCNU 220452Z AUTO 12007KT 10SM CLR 15/10 A3009 RMK AO2 SLP182 T01500100
Loading
Personal Weather Stations






























Interactive Weather Map New forecast layout! Learn more

10-Day Weather Forecast

Advertisements
Track Severe Weather on mobile